sensor_id;sensor_type;location;lat;lon;timestamp;temperature;humidity
42833;DHT22;64089;51.478;5.692;2023-06-14T00:00:07;18.20;77.80
42833;DHT22;64089;51.478;5.692;2023-06-14T00:02:33;18.20;78.30
42833;DHT22;64089;51.478;5.692;2023-06-14T00:04:58;18.20;78.20
42833;DHT22;64089;51.478;5.692;2023-06-14T00:07:37;18.10;78.20
42833;DHT22;64089;51.478;5.692;2023-06-14T00:10:04;18.00;78.70
42833;DHT22;64089;51.478;5.692;2023-06-14T00:12:30;18.00;78.50
42833;DHT22;64089;51.478;5.692;2023-06-14T00:14:56;18.00;78.20
42833;DHT22;64089;51.478;5.692;2023-06-14T00:17:22;18.00;78.70
42833;DHT22;64089;51.478;5.692;2023-06-14T00:19:49;17.90;78.80
42833;DHT22;64089;51.478;5.692;2023-06-14T00:22:14;17.80;78.30
42833;DHT22;64089;51.478;5.692;2023-06-14T00:24:40;17.80;78.40
42833;DHT22;64089;51.478;5.692;2023-06-14T00:27:06;17.80;78.50
42833;DHT22;64089;51.478;5.692;2023-06-14T00:29:32;17.80;78.50
42833;DHT22;64089;51.478;5.692;2023-06-14T00:31:58;17.80;78.40
42833;DHT22;64089;51.478;5.692;2023-06-14T00:34:23;17.70;78.30
42833;DHT22;64089;51.478;5.692;2023-06-14T00:36:49;17.60;78.50
42833;DHT22;64089;51.478;5.692;2023-06-14T00:39:14;17.50;78.20
42833;DHT22;64089;51.478;5.692;2023-06-14T00:41:40;17.50;78.50
42833;DHT22;64089;51.478;5.692;2023-06-14T00:44:06;17.50;78.10
42833;DHT22;64089;51.478;5.692;2023-06-14T00:46:31;17.60;77.90
42833;DHT22;64089;51.478;5.692;2023-06-14T00:48:58;17.50;78.30
42833;DHT22;64089;51.478;5.692;2023-06-14T00:51:26;17.40;78.60
42833;DHT22;64089;51.478;5.692;2023-06-14T00:53:52;17.30;78.20
42833;DHT22;64089;51.478;5.692;2023-06-14T00:56:18;17.30;79.10
42833;DHT22;64089;51.478;5.692;2023-06-14T00:58:46;17.30;78.40
42833;DHT22;64089;51.478;5.692;2023-06-14T01:01:12;17.20;78.50
42833;DHT22;64089;51.478;5.692;2023-06-14T01:03:37;17.20;78.10
42833;DHT22;64089;51.478;5.692;2023-06-14T01:06:16;17.10;79.10
42833;DHT22;64089;51.478;5.692;2023-06-14T01:09:02;17.10;78.50
42833;DHT22;64089;51.478;5.692;2023-06-14T01:11:32;17.10;78.60
42833;DHT22;64089;51.478;5.692;2023-06-14T01:14:03;17.00;78.50
42833;DHT22;64089;51.478;5.692;2023-06-14T01:16:30;17.10;78.60
42833;DHT22;64089;51.478;5.692;2023-06-14T01:18:58;17.00;78.10
42833;DHT22;64089;51.478;5.692;2023-06-14T01:21:25;17.00;78.00
42833;DHT22;64089;51.478;5.692;2023-06-14T01:23:52;17.00;77.90
42833;DHT22;64089;51.478;5.692;2023-06-14T01:26:24;17.00;77.90
42833;DHT22;64089;51.478;5.692;2023-06-14T01:28:52;17.10;77.90
42833;DHT22;64089;51.478;5.692;2023-06-14T01:31:23;17.00;77.60
42833;DHT22;64089;51.478;5.692;2023-06-14T01:33:50;17.00;77.70
42833;DHT22;64089;51.478;5.692;2023-06-14T01:36:21;17.00;77.40
42833;DHT22;64089;51.478;5.692;2023-06-14T01:38:48;17.00;77.30
42833;DHT22;64089;51.478;5.692;2023-06-14T01:41:16;17.00;77.20
42833;DHT22;64089;51.478;5.692;2023-06-14T01:43:43;16.90;77.10
42833;DHT22;64089;51.478;5.692;2023-06-14T01:46:09;16.90;77.60
42833;DHT22;64089;51.478;5.692;2023-06-14T01:48:36;16.90;77.00
42833;DHT22;64089;51.478;5.692;2023-06-14T01:51:01;16.80;76.80
42833;DHT22;64089;51.478;5.692;2023-06-14T01:53:28;16.80;76.80
42833;DHT22;64089;51.478;5.692;2023-06-14T01:55:53;16.90;76.90
42833;DHT22;64089;51.478;5.692;2023-06-14T01:58:19;16.80;76.80
42833;DHT22;64089;51.478;5.692;2023-06-14T02:00:45;16.80;76.70
42833;DHT22;64089;51.478;5.692;2023-06-14T02:03:11;16.90;77.10
42833;DHT22;64089;51.478;5.692;2023-06-14T02:05:37;16.80;76.90
42833;DHT22;64089;51.478;5.692;2023-06-14T02:08:04;16.80;77.10
42833;DHT22;64089;51.478;5.692;2023-06-14T02:10:30;16.80;77.30
42833;DHT22;64089;51.478;5.692;2023-06-14T02:12:56;16.80;77.30
42833;DHT22;64089;51.478;5.692;2023-06-14T02:15:21;16.80;77.20
42833;DHT22;64089;51.478;5.692;2023-06-14T02:17:47;16.80;76.80
42833;DHT22;64089;51.478;5.692;2023-06-14T02:20:14;16.80;76.90
42833;DHT22;64089;51.478;5.692;2023-06-14T02:22:40;16.80;77.20
42833;DHT22;64089;51.478;5.692;2023-06-14T02:25:06;16.80;77.20
42833;DHT22;64089;51.478;5.692;2023-06-14T02:27:33;16.80;77.40
42833;DHT22;64089;51.478;5.692;2023-06-14T02:29:59;16.70;77.20
42833;DHT22;64089;51.478;5.692;2023-06-14T02:32:25;16.70;77.30
42833;DHT22;64089;51.478;5.692;2023-06-14T02:34:52;16.70;77.30
42833;DHT22;64089;51.478;5.692;2023-06-14T02:37:19;16.70;77.30
42833;DHT22;64089;51.478;5.692;2023-06-14T02:39:44;16.70;77.30
42833;DHT22;64089;51.478;5.692;2023-06-14T02:42:10;16.70;77.30
42833;DHT22;64089;51.478;5.692;2023-06-14T02:44:36;16.70;77.10
42833;DHT22;64089;51.478;5.692;2023-06-14T02:47:02;16.70;77.00
42833;DHT22;64089;51.478;5.692;2023-06-14T02:49:28;16.70;77.00
42833;DHT22;64089;51.478;5.692;2023-06-14T02:51:54;16.70;77.10
42833;DHT22;64089;51.478;5.692;2023-06-14T02:54:20;16.70;76.90
42833;DHT22;64089;51.478;5.692;2023-06-14T02:56:46;16.70;77.10
42833;DHT22;64089;51.478;5.692;2023-06-14T02:59:11;16.70;77.00
42833;DHT22;64089;51.478;5.692;2023-06-14T03:01:39;16.70;77.10
42833;DHT22;64089;51.478;5.692;2023-06-14T03:04:07;16.70;77.00
42833;DHT22;64089;51.478;5.692;2023-06-14T03:06:32;16.70;77.10
42833;DHT22;64089;51.478;5.692;2023-06-14T03:08:59;16.70;77.20
42833;DHT22;64089;51.478;5.692;2023-06-14T03:11:27;16.70;77.30
42833;DHT22;64089;51.478;5.692;2023-06-14T03:13:53;16.60;77.20
42833;DHT22;64089;51.478;5.692;2023-06-14T03:16:19;16.60;77.30
42833;DHT22;64089;51.478;5.692;2023-06-14T03:18:50;16.60;77.50
42833;DHT22;64089;51.478;5.692;2023-06-14T03:21:16;16.60;77.30
42833;DHT22;64089;51.478;5.692;2023-06-14T03:23:43;16.60;77.50
42833;DHT22;64089;51.478;5.692;2023-06-14T03:26:08;16.50;77.60
42833;DHT22;64089;51.478;5.692;2023-06-14T03:28:34;16.50;77.70
42833;DHT22;64089;51.478;5.692;2023-06-14T03:30:59;16.50;77.60
42833;DHT22;64089;51.478;5.692;2023-06-14T03:33:25;16.50;78.00
42833;DHT22;64089;51.478;5.692;2023-06-14T03:35:51;16.50;78.30
42833;DHT22;64089;51.478;5.692;2023-06-14T03:38:17;16.40;78.30
42833;DHT22;64089;51.478;5.692;2023-06-14T03:40:42;16.40;78.20
42833;DHT22;64089;51.478;5.692;2023-06-14T03:43:09;16.40;78.40
42833;DHT22;64089;51.478;5.692;2023-06-14T03:45:35;16.30;78.30
42833;DHT22;64089;51.478;5.692;2023-06-14T03:48:01;16.30;78.60
42833;DHT22;64089;51.478;5.692;2023-06-14T03:50:26;16.30;78.80
42833;DHT22;64089;51.478;5.692;2023-06-14T03:52:52;16.30;79.00
42833;DHT22;64089;51.478;5.692;2023-06-14T03:55:18;16.20;78.60
42833;DHT22;64089;51.478;5.692;2023-06-14T03:57:44;16.30;79.30
42833;DHT22;64089;51.478;5.692;2023-06-14T04:00:10;16.20;79.10
42833;DHT22;64089;51.478;5.692;2023-06-14T04:02:37;16.20;79.30
42833;DHT22;64089;51.478;5.692;2023-06-14T04:05:03;16.30;79.50
42833;DHT22;64089;51.478;5.692;2023-06-14T04:07:28;16.30;79.40
42833;DHT22;64089;51.478;5.692;2023-06-14T04:09:55;16.30;79.50
42833;DHT22;64089;51.478;5.692;2023-06-14T04:12:21;16.30;79.30
42833;DHT22;64089;51.478;5.692;2023-06-14T04:14:46;16.40;79.50
42833;DHT22;64089;51.478;5.692;2023-06-14T04:17:12;16.40;79.30
42833;DHT22;64089;51.478;5.692;2023-06-14T04:19:37;16.40;79.10
42833;DHT22;64089;51.478;5.692;2023-06-14T04:22:03;16.50;79.40
42833;DHT22;64089;51.478;5.692;2023-06-14T04:24:29;16.50;79.50
42833;DHT22;64089;51.478;5.692;2023-06-14T04:26:58;16.50;79.50
42833;DHT22;64089;51.478;5.692;2023-06-14T04:29:24;16.60;79.50
42833;DHT22;64089;51.478;5.692;2023-06-14T04:31:53;16.60;79.40
42833;DHT22;64089;51.478;5.692;2023-06-14T04:34:20;16.60;79.50
42833;DHT22;64089;51.478;5.692;2023-06-14T04:36:47;16.60;79.10
42833;DHT22;64089;51.478;5.692;2023-06-14T04:39:21;16.70;79.40
42833;DHT22;64089;51.478;5.692;2023-06-14T04:41:47;16.70;79.50
42833;DHT22;64089;51.478;5.692;2023-06-14T04:44:13;16.80;79.40
42833;DHT22;64089;51.478;5.692;2023-06-14T04:46:39;16.80;79.90
42833;DHT22;64089;51.478;5.692;2023-06-14T04:49:17;16.90;79.40
42833;DHT22;64089;51.478;5.692;2023-06-14T04:51:44;17.00;79.70
42833;DHT22;64089;51.478;5.692;2023-06-14T04:54:10;17.00;79.50
42833;DHT22;64089;51.478;5.692;2023-06-14T04:56:38;17.00;79.30
42833;DHT22;64089;51.478;5.692;2023-06-14T04:59:03;17.10;79.90
42833;DHT22;64089;51.478;5.692;2023-06-14T05:01:32;17.20;79.40
42833;DHT22;64089;51.478;5.692;2023-06-14T05:03:59;17.30;79.40
42833;DHT22;64089;51.478;5.692;2023-06-14T05:06:24;17.30;79.10
42833;DHT22;64089;51.478;5.692;2023-06-14T05:08:50;17.40;79.00
42833;DHT22;64089;51.478;5.692;2023-06-14T05:11:16;17.50;79.10
42833;DHT22;64089;51.478;5.692;2023-06-14T05:13:42;17.60;79.20
42833;DHT22;64089;51.478;5.692;2023-06-14T05:16:08;17.60;79.10
42833;DHT22;64089;51.478;5.692;2023-06-14T05:18:34;17.70;78.90
42833;DHT22;64089;51.478;5.692;2023-06-14T05:21:01;17.70;79.00
42833;DHT22;64089;51.478;5.692;2023-06-14T05:23:26;17.80;79.40
42833;DHT22;64089;51.478;5.692;2023-06-14T05:25:52;17.90;78.90
42833;DHT22;64089;51.478;5.692;2023-06-14T05:28:18;17.90;79.00
42833;DHT22;64089;51.478;5.692;2023-06-14T05:30:44;17.90;79.40
42833;DHT22;64089;51.478;5.692;2023-06-14T05:33:09;18.00;79.40
42833;DHT22;64089;51.478;5.692;2023-06-14T05:35:35;18.10;79.40
42833;DHT22;64089;51.478;5.692;2023-06-14T05:38:01;18.20;79.20
42833;DHT22;64089;51.478;5.692;2023-06-14T05:40:26;18.20;79.30
42833;DHT22;64089;51.478;5.692;2023-06-14T05:42:52;18.20;79.10
42833;DHT22;64089;51.478;5.692;2023-06-14T05:45:18;18.30;79.20
42833;DHT22;64089;51.478;5.692;2023-06-14T05:47:43;18.40;79.00
42833;DHT22;64089;51.478;5.692;2023-06-14T05:50:09;18.50;79.30
42833;DHT22;64089;51.478;5.692;2023-06-14T05:52:35;18.50;78.80
42833;DHT22;64089;51.478;5.692;2023-06-14T05:55:03;18.60;79.00
42833;DHT22;64089;51.478;5.692;2023-06-14T05:57:28;18.60;78.90
42833;DHT22;64089;51.478;5.692;2023-06-14T05:59:54;18.70;79.20
42833;DHT22;64089;51.478;5.692;2023-06-14T06:02:20;18.80;78.60
42833;DHT22;64089;51.478;5.692;2023-06-14T06:04:45;18.90;78.90
42833;DHT22;64089;51.478;5.692;2023-06-14T06:07:11;18.90;78.60
42833;DHT22;64089;51.478;5.692;2023-06-14T06:09:37;18.90;78.70
42833;DHT22;64089;51.478;5.692;2023-06-14T06:12:02;18.90;78.90
42833;DHT22;64089;51.478;5.692;2023-06-14T06:14:28;19.10;79.00
42833;DHT22;64089;51.478;5.692;2023-06-14T06:16:54;19.20;78.90
42833;DHT22;64089;51.478;5.692;2023-06-14T06:19:20;19.30;78.30
42833;DHT22;64089;51.478;5.692;2023-06-14T06:21:45;19.30;78.50
42833;DHT22;64089;51.478;5.692;2023-06-14T06:24:11;19.40;78.60
42833;DHT22;64089;51.478;5.692;2023-06-14T06:26:37;19.60;78.70
42833;DHT22;64089;51.478;5.692;2023-06-14T06:29:03;19.70;78.10
42833;DHT22;64089;51.478;5.692;2023-06-14T06:31:28;19.70;78.60
42833;DHT22;64089;51.478;5.692;2023-06-14T06:33:54;19.90;78.30
42833;DHT22;64089;51.478;5.692;2023-06-14T06:36:20;20.00;77.90
42833;DHT22;64089;51.478;5.692;2023-06-14T06:38:47;20.00;77.60
42833;DHT22;64089;51.478;5.692;2023-06-14T06:41:13;20.10;77.70
42833;DHT22;64089;51.478;5.692;2023-06-14T06:43:38;20.20;77.50
42833;DHT22;64089;51.478;5.692;2023-06-14T06:46:04;20.30;76.70
42833;DHT22;64089;51.478;5.692;2023-06-14T06:48:30;20.40;76.70
42833;DHT22;64089;51.478;5.692;2023-06-14T06:50:55;20.40;75.80
42833;DHT22;64089;51.478;5.692;2023-06-14T06:53:21;20.50;76.00
42833;DHT22;64089;51.478;5.692;2023-06-14T06:55:46;20.50;75.70
42833;DHT22;64089;51.478;5.692;2023-06-14T06:58:13;20.60;75.60
42833;DHT22;64089;51.478;5.692;2023-06-14T07:00:38;20.70;75.50
42833;DHT22;64089;51.478;5.692;2023-06-14T07:03:05;20.70;75.70
42833;DHT22;64089;51.478;5.692;2023-06-14T07:05:30;20.80;75.80
42833;DHT22;64089;51.478;5.692;2023-06-14T07:07:56;20.90;75.70
42833;DHT22;64089;51.478;5.692;2023-06-14T07:10:22;21.00;75.70
42833;DHT22;64089;51.478;5.692;2023-06-14T07:12:50;21.10;75.60
42833;DHT22;64089;51.478;5.692;2023-06-14T07:15:15;21.10;75.40
42833;DHT22;64089;51.478;5.692;2023-06-14T07:17:41;21.20;75.30
42833;DHT22;64089;51.478;5.692;2023-06-14T07:20:08;21.30;75.20
42833;DHT22;64089;51.478;5.692;2023-06-14T07:22:38;21.30;75.50
42833;DHT22;64089;51.478;5.692;2023-06-14T07:25:04;21.50;75.10
42833;DHT22;64089;51.478;5.692;2023-06-14T07:27:30;21.50;74.80
42833;DHT22;64089;51.478;5.692;2023-06-14T07:29:55;21.60;74.90
42833;DHT22;64089;51.478;5.692;2023-06-14T07:32:21;21.50;74.70
42833;DHT22;64089;51.478;5.692;2023-06-14T07:34:46;21.60;75.10
42833;DHT22;64089;51.478;5.692;2023-06-14T07:37:12;21.70;74.90
42833;DHT22;64089;51.478;5.692;2023-06-14T07:39:38;21.70;74.60
42833;DHT22;64089;51.478;5.692;2023-06-14T07:42:03;21.80;74.80
42833;DHT22;64089;51.478;5.692;2023-06-14T07:44:30;21.80;74.50
42833;DHT22;64089;51.478;5.692;2023-06-14T07:46:56;21.90;74.20
42833;DHT22;64089;51.478;5.692;2023-06-14T07:49:25;21.90;73.90
42833;DHT22;64089;51.478;5.692;2023-06-14T07:51:51;21.90;74.30
42833;DHT22;64089;51.478;5.692;2023-06-14T07:54:16;22.00;74.90
42833;DHT22;64089;51.478;5.692;2023-06-14T07:56:42;22.20;74.50
42833;DHT22;64089;51.478;5.692;2023-06-14T07:59:08;22.20;74.30
42833;DHT22;64089;51.478;5.692;2023-06-14T08:01:34;22.30;73.60
42833;DHT22;64089;51.478;5.692;2023-06-14T08:04:00;22.50;74.20
42833;DHT22;64089;51.478;5.692;2023-06-14T08:06:26;22.60;73.60
42833;DHT22;64089;51.478;5.692;2023-06-14T08:08:52;22.60;72.10
42833;DHT22;64089;51.478;5.692;2023-06-14T08:11:17;22.70;72.40
42833;DHT22;64089;51.478;5.692;2023-06-14T08:13:43;22.70;71.20
42833;DHT22;64089;51.478;5.692;2023-06-14T08:16:09;22.50;71.30
42833;DHT22;64089;51.478;5.692;2023-06-14T08:18:34;22.60;71.70
42833;DHT22;64089;51.478;5.692;2023-06-14T08:21:00;22.60;71.80
42833;DHT22;64089;51.478;5.692;2023-06-14T08:23:26;22.60;71.70
42833;DHT22;64089;51.478;5.692;2023-06-14T08:25:52;22.70;71.50
42833;DHT22;64089;51.478;5.692;2023-06-14T08:28:18;22.70;72.00
42833;DHT22;64089;51.478;5.692;2023-06-14T08:30:43;22.90;71.90
42833;DHT22;64089;51.478;5.692;2023-06-14T08:33:09;22.90;72.00
42833;DHT22;64089;51.478;5.692;2023-06-14T08:35:34;22.90;72.50
42833;DHT22;64089;51.478;5.692;2023-06-14T08:38:03;22.80;72.50
42833;DHT22;64089;51.478;5.692;2023-06-14T08:40:30;22.90;72.50
42833;DHT22;64089;51.478;5.692;2023-06-14T08:42:56;23.00;71.90
42833;DHT22;64089;51.478;5.692;2023-06-14T08:45:23;23.20;72.10
42833;DHT22;64089;51.478;5.692;2023-06-14T08:47:49;23.20;68.80
42833;DHT22;64089;51.478;5.692;2023-06-14T08:50:23;23.30;69.20
42833;DHT22;64089;51.478;5.692;2023-06-14T08:52:54;23.20;69.30
42833;DHT22;64089;51.478;5.692;2023-06-14T08:55:22;23.10;69.00
42833;DHT22;64089;51.478;5.692;2023-06-14T08:57:51;23.20;68.70
42833;DHT22;64089;51.478;5.692;2023-06-14T09:00:19;23.30;68.90
42833;DHT22;64089;51.478;5.692;2023-06-14T09:02:46;23.40;68.90
42833;DHT22;64089;51.478;5.692;2023-06-14T09:05:12;23.60;69.40
42833;DHT22;64089;51.478;5.692;2023-06-14T09:07:40;23.70;68.70
42833;DHT22;64089;51.478;5.692;2023-06-14T09:10:12;23.80;67.20
42833;DHT22;64089;51.478;5.692;2023-06-14T09:12:38;23.80;64.90
42833;DHT22;64089;51.478;5.692;2023-06-14T09:15:05;23.70;65.30
42833;DHT22;64089;51.478;5.692;2023-06-14T09:17:38;23.80;66.20
42833;DHT22;64089;51.478;5.692;2023-06-14T09:20:05;23.80;66.00
42833;DHT22;64089;51.478;5.692;2023-06-14T09:22:32;24.00;66.40
42833;DHT22;64089;51.478;5.692;2023-06-14T09:24:58;24.10;64.60
42833;DHT22;64089;51.478;5.692;2023-06-14T09:27:28;24.00;64.40
42833;DHT22;64089;51.478;5.692;2023-06-14T09:29:54;24.00;64.20
42833;DHT22;64089;51.478;5.692;2023-06-14T09:32:21;24.10;64.70
42833;DHT22;64089;51.478;5.692;2023-06-14T09:34:47;23.90;64.70
42833;DHT22;64089;51.478;5.692;2023-06-14T09:37:13;23.90;64.90
42833;DHT22;64089;51.478;5.692;2023-06-14T09:39:51;23.90;64.60
42833;DHT22;64089;51.478;5.692;2023-06-14T09:42:17;24.10;65.50
42833;DHT22;64089;51.478;5.692;2023-06-14T09:44:49;24.10;65.70
42833;DHT22;64089;51.478;5.692;2023-06-14T09:47:16;24.20;63.70
42833;DHT22;64089;51.478;5.692;2023-06-14T09:49:42;24.10;64.00
42833;DHT22;64089;51.478;5.692;2023-06-14T09:52:15;24.10;64.40
42833;DHT22;64089;51.478;5.692;2023-06-14T09:54:42;24.20;64.50
42833;DHT22;64089;51.478;5.692;2023-06-14T09:57:11;24.10;64.60
42833;DHT22;64089;51.478;5.692;2023-06-14T09:59:43;24.10;64.80
42833;DHT22;64089;51.478;5.692;2023-06-14T10:04:44;24.30;65.50
42833;DHT22;64089;51.478;5.692;2023-06-14T10:07:12;24.40;65.30
42833;DHT22;64089;51.478;5.692;2023-06-14T10:09:40;24.50;65.80
42833;DHT22;64089;51.478;5.692;2023-06-14T10:12:09;24.70;65.70
42833;DHT22;64089;51.478;5.692;2023-06-14T10:14:36;24.80;65.80
42833;DHT22;64089;51.478;5.692;2023-06-14T10:17:06;24.90;66.00
42833;DHT22;64089;51.478;5.692;2023-06-14T10:19:45;24.80;65.00
42833;DHT22;64089;51.478;5.692;2023-06-14T10:22:18;24.60;65.80
42833;DHT22;64089;51.478;5.692;2023-06-14T10:24:45;24.80;66.30
42833;DHT22;64089;51.478;5.692;2023-06-14T10:27:14;24.90;66.90
42833;DHT22;64089;51.478;5.692;2023-06-14T10:32:18;25.40;65.30
42833;DHT22;64089;51.478;5.692;2023-06-14T10:34:44;25.00;65.50
42833;DHT22;64089;51.478;5.692;2023-06-14T10:37:13;24.70;66.20
42833;DHT22;64089;51.478;5.692;2023-06-14T10:39:44;24.80;67.30
42833;DHT22;64089;51.478;5.692;2023-06-14T10:42:13;25.00;67.20
42833;DHT22;64089;51.478;5.692;2023-06-14T10:44:49;25.10;67.50
42833;DHT22;64089;51.478;5.692;2023-06-14T10:47:31;25.00;67.20
42833;DHT22;64089;51.478;5.692;2023-06-14T10:50:10;25.10;66.70
42833;DHT22;64089;51.478;5.692;2023-06-14T10:52:42;24.80;66.40
42833;DHT22;64089;51.478;5.692;2023-06-14T10:57:57;24.90;67.10
42833;DHT22;64089;51.478;5.692;2023-06-14T11:00:25;25.20;67.30
42833;DHT22;64089;51.478;5.692;2023-06-14T11:10:44;25.10;66.80
42833;DHT22;64089;51.478;5.692;2023-06-14T11:13:13;25.10;65.90
42833;DHT22;64089;51.478;5.692;2023-06-14T11:15:45;25.20;66.80
42833;DHT22;64089;51.478;5.692;2023-06-14T11:18:13;25.00;67.00
42833;DHT22;64089;51.478;5.692;2023-06-14T11:20:40;24.90;67.70
42833;DHT22;64089;51.478;5.692;2023-06-14T11:23:05;24.90;67.90
42833;DHT22;64089;51.478;5.692;2023-06-14T11:25:31;25.10;68.20
42833;DHT22;64089;51.478;5.692;2023-06-14T11:27:57;25.20;68.40
42833;DHT22;64089;51.478;5.692;2023-06-14T11:30:24;25.30;67.00
42833;DHT22;64089;51.478;5.692;2023-06-14T11:32:52;25.30;67.50
42833;DHT22;64089;51.478;5.692;2023-06-14T11:35:19;25.30;67.70
42833;DHT22;64089;51.478;5.692;2023-06-14T11:37:48;25.30;68.00
42833;DHT22;64089;51.478;5.692;2023-06-14T11:40:14;25.40;67.80
42833;DHT22;64089;51.478;5.692;2023-06-14T11:42:41;25.50;66.80
42833;DHT22;64089;51.478;5.692;2023-06-14T11:45:11;25.60;66.20
42833;DHT22;64089;51.478;5.692;2023-06-14T11:47:38;25.80;67.00
42833;DHT22;64089;51.478;5.692;2023-06-14T11:50:06;25.80;66.70
42833;DHT22;64089;51.478;5.692;2023-06-14T11:52:32;25.70;66.80
42833;DHT22;64089;51.478;5.692;2023-06-14T11:54:58;25.70;67.60
42833;DHT22;64089;51.478;5.692;2023-06-14T11:57:25;25.80;67.50
42833;DHT22;64089;51.478;5.692;2023-06-14T11:59:51;25.60;68.10
42833;DHT22;64089;51.478;5.692;2023-06-14T12:02:17;25.70;67.30
42833;DHT22;64089;51.478;5.692;2023-06-14T12:04:43;25.40;67.20
42833;DHT22;64089;51.478;5.692;2023-06-14T12:07:14;25.50;67.20
42833;DHT22;64089;51.478;5.692;2023-06-14T12:12:25;25.70;66.90
42833;DHT22;64089;51.478;5.692;2023-06-14T12:14:51;25.50;67.30
42833;DHT22;64089;51.478;5.692;2023-06-14T12:17:18;25.40;67.80
42833;DHT22;64089;51.478;5.692;2023-06-14T12:19:45;25.70;67.60
42833;DHT22;64089;51.478;5.692;2023-06-14T12:22:11;26.00;67.30
42833;DHT22;64089;51.478;5.692;2023-06-14T12:24:37;26.10;67.00
42833;DHT22;64089;51.478;5.692;2023-06-14T12:27:06;26.10;66.70
42833;DHT22;64089;51.478;5.692;2023-06-14T12:29:32;26.40;66.00
42833;DHT22;64089;51.478;5.692;2023-06-14T12:31:58;26.60;65.90
42833;DHT22;64089;51.478;5.692;2023-06-14T12:34:24;26.60;64.50
42833;DHT22;64089;51.478;5.692;2023-06-14T12:36:50;26.60;65.20
42833;DHT22;64089;51.478;5.692;2023-06-14T12:39:16;26.50;65.60
42833;DHT22;64089;51.478;5.692;2023-06-14T12:41:42;26.60;64.60
42833;DHT22;64089;51.478;5.692;2023-06-14T12:44:08;26.40;64.80
42833;DHT22;64089;51.478;5.692;2023-06-14T12:46:34;26.40;64.80
42833;DHT22;64089;51.478;5.692;2023-06-14T12:49:00;26.40;64.60
42833;DHT22;64089;51.478;5.692;2023-06-14T12:51:26;26.40;64.40
42833;DHT22;64089;51.478;5.692;2023-06-14T12:53:51;26.40;64.90
42833;DHT22;64089;51.478;5.692;2023-06-14T12:56:17;26.20;65.30
42833;DHT22;64089;51.478;5.692;2023-06-14T12:58:43;26.40;65.20
42833;DHT22;64089;51.478;5.692;2023-06-14T13:01:08;26.50;65.20
42833;DHT22;64089;51.478;5.692;2023-06-14T13:03:34;26.60;65.20
42833;DHT22;64089;51.478;5.692;2023-06-14T13:06:00;26.60;64.70
42833;DHT22;64089;51.478;5.692;2023-06-14T13:08:27;26.80;64.30
42833;DHT22;64089;51.478;5.692;2023-06-14T13:10:53;26.40;64.60
42833;DHT22;64089;51.478;5.692;2023-06-14T13:13:19;26.30;65.20
42833;DHT22;64089;51.478;5.692;2023-06-14T13:15:44;26.70;66.30
42833;DHT22;64089;51.478;5.692;2023-06-14T13:18:11;26.80;65.60
42833;DHT22;64089;51.478;5.692;2023-06-14T13:20:39;26.90;65.50
42833;DHT22;64089;51.478;5.692;2023-06-14T13:23:04;26.80;65.60
42833;DHT22;64089;51.478;5.692;2023-06-14T13:25:33;26.90;65.60
42833;DHT22;64089;51.478;5.692;2023-06-14T13:27:58;26.80;65.40
42833;DHT22;64089;51.478;5.692;2023-06-14T13:30:24;27.00;64.90
42833;DHT22;64089;51.478;5.692;2023-06-14T13:32:50;27.00;64.40
42833;DHT22;64089;51.478;5.692;2023-06-14T13:35:18;26.60;64.50
42833;DHT22;64089;51.478;5.692;2023-06-14T13:37:43;26.70;64.60
42833;DHT22;64089;51.478;5.692;2023-06-14T13:40:09;26.70;64.30
42833;DHT22;64089;51.478;5.692;2023-06-14T13:42:35;26.60;64.00
42833;DHT22;64089;51.478;5.692;2023-06-14T13:45:02;26.70;64.30
42833;DHT22;64089;51.478;5.692;2023-06-14T13:47:27;26.90;64.40
42833;DHT22;64089;51.478;5.692;2023-06-14T13:49:53;27.00;64.00
42833;DHT22;64089;51.478;5.692;2023-06-14T13:52:19;27.10;64.30
42833;DHT22;64089;51.478;5.692;2023-06-14T13:54:44;27.40;64.10
42833;DHT22;64089;51.478;5.692;2023-06-14T13:57:10;27.50;63.90
42833;DHT22;64089;51.478;5.692;2023-06-14T13:59:38;27.60;63.80
42833;DHT22;64089;51.478;5.692;2023-06-14T14:02:04;27.50;64.00
42833;DHT22;64089;51.478;5.692;2023-06-14T14:04:31;27.50;63.40
42833;DHT22;64089;51.478;5.692;2023-06-14T14:06:56;27.60;64.20
42833;DHT22;64089;51.478;5.692;2023-06-14T14:09:22;27.70;63.50
42833;DHT22;64089;51.478;5.692;2023-06-14T14:11:48;27.40;62.70
42833;DHT22;64089;51.478;5.692;2023-06-14T14:14:14;27.50;63.80
42833;DHT22;64089;51.478;5.692;2023-06-14T14:16:40;27.70;63.40
42833;DHT22;64089;51.478;5.692;2023-06-14T14:19:05;27.50;63.70
42833;DHT22;64089;51.478;5.692;2023-06-14T14:21:32;27.80;63.90
42833;DHT22;64089;51.478;5.692;2023-06-14T14:23:58;27.80;64.00
42833;DHT22;64089;51.478;5.692;2023-06-14T14:26:23;28.00;64.80
42833;DHT22;64089;51.478;5.692;2023-06-14T14:28:50;28.10;64.60
42833;DHT22;64089;51.478;5.692;2023-06-14T14:31:16;28.00;63.50
42833;DHT22;64089;51.478;5.692;2023-06-14T14:33:42;27.70;64.20
42833;DHT22;64089;51.478;5.692;2023-06-14T14:36:07;28.00;64.20
42833;DHT22;64089;51.478;5.692;2023-06-14T14:38:33;28.00;64.00
42833;DHT22;64089;51.478;5.692;2023-06-14T14:40:59;28.00;64.40
42833;DHT22;64089;51.478;5.692;2023-06-14T14:43:24;28.00;62.80
42833;DHT22;64089;51.478;5.692;2023-06-14T14:45:50;28.00;62.40
42833;DHT22;64089;51.478;5.692;2023-06-14T14:48:16;27.50;63.10
42833;DHT22;64089;51.478;5.692;2023-06-14T14:50:41;27.40;63.30
42833;DHT22;64089;51.478;5.692;2023-06-14T14:53:07;27.50;63.60
42833;DHT22;64089;51.478;5.692;2023-06-14T14:55:33;27.70;64.00
42833;DHT22;64089;51.478;5.692;2023-06-14T14:58:01;27.70;64.30
42833;DHT22;64089;51.478;5.692;2023-06-14T15:00:27;27.50;64.50
42833;DHT22;64089;51.478;5.692;2023-06-14T15:02:53;27.70;65.10
42833;DHT22;64089;51.478;5.692;2023-06-14T15:05:18;27.80;64.20
42833;DHT22;64089;51.478;5.692;2023-06-14T15:07:44;28.10;64.70
42833;DHT22;64089;51.478;5.692;2023-06-14T15:10:11;28.10;63.70
42833;DHT22;64089;51.478;5.692;2023-06-14T15:12:37;28.40;63.50
42833;DHT22;64089;51.478;5.692;2023-06-14T15:15:03;28.10;63.50
42833;DHT22;64089;51.478;5.692;2023-06-14T15:17:29;27.90;63.90
42833;DHT22;64089;51.478;5.692;2023-06-14T15:19:55;28.00;65.00
42833;DHT22;64089;51.478;5.692;2023-06-14T15:22:21;28.20;63.80
42833;DHT22;64089;51.478;5.692;2023-06-14T15:24:46;28.40;64.30
42833;DHT22;64089;51.478;5.692;2023-06-14T15:27:12;28.40;63.80
42833;DHT22;64089;51.478;5.692;2023-06-14T15:29:41;28.20;64.10
42833;DHT22;64089;51.478;5.692;2023-06-14T15:32:07;28.10;64.00
42833;DHT22;64089;51.478;5.692;2023-06-14T15:34:33;28.30;64.20
42833;DHT22;64089;51.478;5.692;2023-06-14T15:36:59;28.10;63.70
42833;DHT22;64089;51.478;5.692;2023-06-14T15:39:25;28.20;64.10
42833;DHT22;64089;51.478;5.692;2023-06-14T15:41:52;28.10;63.40
42833;DHT22;64089;51.478;5.692;2023-06-14T15:44:18;28.30;63.80